• pl
  • eng

Awiacja
NEWS
last updated: 12.09.2019 14:49<\/div>
Dear users,
We would like to inform you that from September 2nd a test form of the GAFOR forecast is available on our webpage. Please send your comments and suggestions to gafor@imgw.pl that will contribute to product development.
TAF FT 21:30 14.11.2019
  • WIND
  • SIGNIFICANT EURO
  • SIGNIFICANT
  • SIGMET
  • AIRMET
  • TAF FC
  • TAF FT
  • METAR GG30
  • METAR GG00


TAF AMD EPBY 142200Z 1422/1518 10008KT 7000 BKN012 OVC015
PROB40 TEMPO 1422/1508 3500 BR BKN004 OVC007
BECMG 1507/1510 BKN007 OVC012
TEMPO 1508/1518 3000 BR OVC004
PROB40 TEMPO 1515/1518 1400 BR BKN001=

TAF EPGD 141730Z 1418/1518 VRB05KT 6000 NSC
TEMPO 1418/1507 3200 BR BKN006 BKN012
BECMG 1420/1423 10010KT
PROB40 TEMPO 1421/1506 1200 BR BKN004
BECMG 1507/1510 BKN005 OVC012
TEMPO 1510/1518 3000 BR BKN002
PROB40 1515/1518 1000 BR OVC001=

TAF EPKK 142030Z 1421/1521 07007KT 9999 BKN007
BECMG 1421/1424 0800 FG BKN004
TEMPO 1422/1507 0200 FG BKN001
BECMG 1507/1509 2000 BR
TEMPO 1509/1515 4000 BR BKN015
BECMG 1518/1521 0800 FG BKN004=

TAF AMD EPKT 142032Z 1420/1518 10010KT 8000 OVC004
BECMG 1421/1424 2000 BR
PROB40 TEMPO 1421/1507 0200 FG OVC001
BECMG 1507/1510 4000 BR BKN007
TEMPO 1510/1516 7000 BKN014=

TAF EPLL 141730Z 1418/1518 07005KT 9999 BKN007 BKN010
TEMPO 1500/1507 4500 BR BKN005
PROB40 TEMPO 1502/1506 1400 -DZ BR OVC003
BECMG 1508/1511 BKN020=

TAF EPMO 141730Z 1418/1518 07005KT 9999 BKN010 BKN015
TEMPO 1502/1510 4000 BR BKN005 BKN008
PROB40 1502/1507 1400 BR OVC003=

TAF AMD EPPO 142108Z 1421/1518 11012KT 8000 BKN010
TEMPO 1421/1518 4000 BR BKN004 BKN008
PROB40 1509/1518 0500 FG OVC001=

TAF AMD EPRZ 142103Z 1421/1518 04004KT 1000 BR OVC002
TEMPO 1421/1507 0500 FG DZ OVC001
PROB40 TEMPO 1421/1507 0200 FG
BECMG 1508/1511 7000 BKN017=

TAF EPSC 141730Z 1418/1518 10010KT CAVOK
TEMPO 1418/1511 3000 BR BKN005 BKN012
BECMG 1511/1514 BKN010
PROB40 TEMPO 1512/1518 10015G25KT BKN004 BKN008=

TAF EPWA 142030Z 1421/1521 07009KT 9999 BKN030
BECMG 1421/1423 BKN011
BECMG 1500/1502 BKN006
TEMPO 1502/1509 2000 -RA BR BKN002
BECMG 1509/1511 13010KT
TEMPO 1509/1512 3000 -RA BR BKN004
TEMPO 1515/1521 BKN003=

TAF EPWR 142030Z 1421/1521 11012KT 6000 BKN008
BECMG 1421/1423 2000 BR
TEMPO 1421/1509 1200 BR BKN002
PROB30 1421/1507 0300 FG OVC001
BECMG 1509/1512 12015G25KT CAVOK=
Awiacja.imgw.pl jest pogodowym serwisem informacyjnym
Instytutu Meteorologii i Gospodarki Wodnej Państwowego Instytutu Badawczego.
Copyright IMGW PIB 2009-2019© Wszelkie prawa zastrzeżone.